PWSweather.com
Personal Weather Stations
Station Observations
IMAZOWIE6
WarszawaPL

WarszawaPL

Lat: 52.27957, Lon: 21.05489

Elevation: 100

Station Type: WS1080

http://stacjapogody.waw.pl/

High Low Average
Temperature 66.4°F19.1°C 57.7°F14.3°C 63.4°F17.4°C
Dew Point 28.9°F-1.7°C -166.7°F-110.4°C -107.0°F-77.2°C
Winds Calm Calm Calm Calm Calm NCalm N
Wind Gusts 0.6 mph1.0 kmh -- --
Humidity 32% 11% 28%
Pressure 29.59 in1002.0 mb 29.29 in991.9 mb -
Precipitation 0.00 in0.0 mm - -
Hour Temp Dew Point Humidity Winds Wind Gusts Pressure Precip Precip Rate Daily Precip Total
12:00 AM 66.0°F18.9°C -166.2°F-110.1°C - Calm Calm -- 29.59 in1002.0 mb 0.00 in0.0 mm 0.00 in0.0 mm 0.00 in0.0 mm
12:15 AM 66.0°F18.9°C -166.2°F-110.1°C - Calm Calm -- 29.59 in1002.0 mb 0.00 in0.0 mm 0.00 in0.0 mm 0.00 in0.0 mm
12:30 AM 66.0°F18.9°C -166.2°F-110.1°C - Calm Calm -- 29.59 in1002.0 mb 0.00 in0.0 mm 0.00 in0.0 mm 0.00 in0.0 mm
12:45 AM 66.0°F18.9°C -166.2°F-110.1°C - Calm Calm -- 29.59 in1002.0 mb 0.00 in0.0 mm 0.00 in0.0 mm 0.00 in0.0 mm
01:00 AM 66.0°F18.9°C -166.2°F-110.1°C - Calm Calm -- 29.59 in1002.0 mb 0.00 in0.0 mm 0.00 in0.0 mm 0.00 in0.0 mm
01:15 AM 66.0°F18.9°C -166.2°F-110.1°C - Calm Calm -- 29.59 in1002.0 mb 0.00 in0.0 mm 0.00 in0.0 mm 0.00 in0.0 mm
01:30 AM 66.0°F18.9°C -166.2°F-110.1°C - Calm Calm -- 29.59 in1002.0 mb 0.00 in0.0 mm 0.00 in0.0 mm 0.00 in0.0 mm
01:45 AM 66.0°F18.9°C -166.2°F-110.1°C - Calm Calm -- 29.59 in1002.0 mb 0.00 in0.0 mm 0.00 in0.0 mm 0.00 in0.0 mm
02:00 AM 66.0°F18.9°C -166.2°F-110.1°C - Calm Calm -- 29.59 in1002.0 mb 0.00 in0.0 mm 0.00 in0.0 mm 0.00 in0.0 mm
02:15 AM 66.0°F18.9°C -166.2°F-110.1°C - Calm Calm -- 29.59 in1002.0 mb 0.00 in0.0 mm 0.00 in0.0 mm 0.00 in0.0 mm
02:30 AM 66.0°F18.9°C -166.2°F-110.1°C - Calm Calm -- 29.59 in1002.0 mb 0.00 in0.0 mm 0.00 in0.0 mm 0.00 in0.0 mm
02:45 AM 66.0°F18.9°C -166.2°F-110.1°C - Calm Calm -- 29.59 in1002.0 mb 0.00 in0.0 mm 0.00 in0.0 mm 0.00 in0.0 mm
03:00 AM 66.0°F18.9°C -166.2°F-110.1°C - Calm Calm -- 29.59 in1002.0 mb 0.00 in0.0 mm 0.00 in0.0 mm 0.00 in0.0 mm
03:15 AM 66.0°F18.9°C -166.2°F-110.1°C - Calm Calm -- 29.59 in1002.0 mb 0.00 in0.0 mm 0.00 in0.0 mm 0.00 in0.0 mm
03:30 AM 66.0°F18.9°C -166.2°F-110.1°C - Calm Calm -- 29.59 in1002.0 mb 0.00 in0.0 mm 0.00 in0.0 mm 0.00 in0.0 mm
03:45 AM 66.0°F18.9°C -166.2°F-110.1°C - Calm Calm -- 29.59 in1002.0 mb 0.00 in0.0 mm 0.00 in0.0 mm 0.00 in0.0 mm
04:00 AM 66.0°F18.9°C -166.2°F-110.1°C - Calm Calm -- 29.59 in1002.0 mb 0.00 in0.0 mm 0.00 in0.0 mm 0.00 in0.0 mm
04:15 AM 66.0°F18.9°C -166.2°F-110.1°C - Calm Calm -- 29.59 in1002.0 mb 0.00 in0.0 mm 0.00 in0.0 mm 0.00 in0.0 mm
04:30 AM 66.0°F18.9°C -166.2°F-110.1°C - Calm Calm -- 29.59 in1002.0 mb 0.00 in0.0 mm 0.00 in0.0 mm 0.00 in0.0 mm
04:45 AM 66.0°F18.9°C -166.2°F-110.1°C - Calm Calm -- 29.59 in1002.0 mb 0.00 in0.0 mm 0.00 in0.0 mm 0.00 in0.0 mm
05:00 AM 66.0°F18.9°C -166.2°F-110.1°C - Calm Calm -- 29.59 in1002.0 mb 0.00 in0.0 mm 0.00 in0.0 mm 0.00 in0.0 mm
05:15 AM 66.0°F18.9°C -166.2°F-110.1°C - Calm Calm -- 29.59 in1002.0 mb 0.00 in0.0 mm 0.00 in0.0 mm 0.00 in0.0 mm
05:30 AM 66.0°F18.9°C -166.2°F-110.1°C - Calm Calm -- 29.59 in1002.0 mb 0.00 in0.0 mm 0.00 in0.0 mm 0.00 in0.0 mm
05:45 AM 66.0°F18.9°C -166.2°F-110.1°C - Calm Calm -- 29.59 in1002.0 mb 0.00 in0.0 mm 0.00 in0.0 mm 0.00 in0.0 mm
06:00 AM 66.0°F18.9°C -166.2°F-110.1°C - Calm Calm -- 29.59 in1002.0 mb 0.00 in0.0 mm 0.00 in0.0 mm 0.00 in0.0 mm
06:15 AM 66.0°F18.9°C -166.2°F-110.1°C - Calm Calm -- 29.59 in1002.0 mb 0.00 in0.0 mm 0.00 in0.0 mm 0.00 in0.0 mm
06:30 AM 66.0°F18.9°C -166.2°F-110.1°C - Calm Calm -- 29.59 in1002.0 mb 0.00 in0.0 mm 0.00 in0.0 mm 0.00 in0.0 mm
06:45 AM 66.0°F18.9°C -166.2°F-110.1°C - Calm Calm -- 29.59 in1002.0 mb 0.00 in0.0 mm 0.00 in0.0 mm 0.00 in0.0 mm
07:00 AM 66.0°F18.9°C -166.2°F-110.1°C - Calm Calm -- 29.59 in1002.0 mb 0.00 in0.0 mm 0.00 in0.0 mm 0.00 in0.0 mm
07:15 AM 66.0°F18.9°C -166.2°F-110.1°C - Calm Calm -- 29.59 in1002.0 mb 0.00 in0.0 mm 0.00 in0.0 mm 0.00 in0.0 mm
07:30 AM 66.0°F18.9°C -166.2°F-110.1°C - Calm Calm -- 29.59 in1002.0 mb 0.00 in0.0 mm 0.00 in0.0 mm 0.00 in0.0 mm
07:45 AM 66.0°F18.9°C -166.2°F-110.1°C - Calm Calm -- 29.59 in1002.0 mb 0.00 in0.0 mm 0.00 in0.0 mm 0.00 in0.0 mm
08:00 AM 66.0°F18.9°C -166.2°F-110.1°C - Calm Calm -- 29.59 in1002.0 mb 0.00 in0.0 mm 0.00 in0.0 mm 0.00 in0.0 mm
08:15 AM 66.0°F18.9°C -166.2°F-110.1°C - Calm Calm -- 29.59 in1002.0 mb 0.00 in0.0 mm 0.00 in0.0 mm 0.00 in0.0 mm
08:30 AM 66.0°F18.9°C -166.2°F-110.1°C - Calm Calm -- 29.59 in1002.0 mb 0.00 in0.0 mm 0.00 in0.0 mm 0.00 in0.0 mm
08:45 AM 66.0°F18.9°C -166.2°F-110.1°C - Calm Calm -- 29.59 in1002.0 mb 0.00 in0.0 mm 0.00 in0.0 mm 0.00 in0.0 mm
09:00 AM 66.0°F18.9°C -166.2°F-110.1°C - Calm Calm -- 29.59 in1002.0 mb 0.00 in0.0 mm 0.00 in0.0 mm 0.00 in0.0 mm
09:15 AM 66.0°F18.9°C -166.2°F-110.1°C - Calm Calm -- 29.59 in1002.0 mb 0.00 in0.0 mm 0.00 in0.0 mm 0.00 in0.0 mm
09:30 AM 66.0°F18.9°C -166.2°F-110.1°C - Calm Calm -- 29.59 in1002.0 mb 0.00 in0.0 mm 0.00 in0.0 mm 0.00 in0.0 mm
09:45 AM 66.0°F18.9°C -166.2°F-110.1°C - Calm Calm -- 29.59 in1002.0 mb 0.00 in0.0 mm 0.00 in0.0 mm 0.00 in0.0 mm
10:00 AM 66.0°F18.9°C -166.2°F-110.1°C - Calm Calm -- 29.59 in1002.0 mb 0.00 in0.0 mm 0.00 in0.0 mm 0.00 in0.0 mm
10:15 AM 66.0°F18.9°C -166.2°F-110.1°C - Calm Calm -- 29.59 in1002.0 mb 0.00 in0.0 mm 0.00 in0.0 mm 0.00 in0.0 mm
10:30 AM 66.0°F18.9°C -166.2°F-110.1°C - Calm Calm -- 29.59 in1002.0 mb 0.00 in0.0 mm 0.00 in0.0 mm 0.00 in0.0 mm
10:45 AM 66.0°F18.9°C -166.2°F-110.1°C - Calm Calm -- 29.59 in1002.0 mb 0.00 in0.0 mm 0.00 in0.0 mm 0.00 in0.0 mm
11:00 AM 66.0°F18.9°C -166.2°F-110.1°C - Calm Calm -- 29.59 in1002.0 mb 0.00 in0.0 mm 0.00 in0.0 mm 0.00 in0.0 mm
11:15 AM 66.0°F18.9°C -166.2°F-110.1°C - Calm Calm -- 29.59 in1002.0 mb 0.00 in0.0 mm 0.00 in0.0 mm 0.00 in0.0 mm
11:30 AM 66.0°F18.9°C -166.2°F-110.1°C - Calm Calm -- 29.59 in1002.0 mb 0.00 in0.0 mm 0.00 in0.0 mm 0.00 in0.0 mm
11:45 AM 66.0°F18.9°C -166.2°F-110.1°C - Calm Calm -- 29.59 in1002.0 mb 0.00 in0.0 mm 0.00 in0.0 mm 0.00 in0.0 mm
12:00 PM 66.0°F18.9°C -166.2°F-110.1°C - Calm Calm -- 29.59 in1002.0 mb 0.00 in0.0 mm 0.00 in0.0 mm 0.00 in0.0 mm
12:15 PM 66.0°F18.9°C -166.2°F-110.1°C - Calm Calm -- 29.59 in1002.0 mb 0.00 in0.0 mm 0.00 in0.0 mm 0.00 in0.0 mm
12:30 PM 66.0°F18.9°C -166.2°F-110.1°C - Calm Calm -- 29.59 in1002.0 mb 0.00 in0.0 mm 0.00 in0.0 mm 0.00 in0.0 mm
12:45 PM 66.0°F18.9°C -166.2°F-110.1°C - Calm Calm -- 29.59 in1002.0 mb 0.00 in0.0 mm 0.00 in0.0 mm 0.00 in0.0 mm
01:00 PM 66.0°F18.9°C -166.2°F-110.1°C - Calm Calm -- 29.59 in1002.0 mb 0.00 in0.0 mm 0.00 in0.0 mm 0.00 in0.0 mm
01:14 PM 66.0°F18.9°C -166.2°F-110.1°C - Calm Calm -- 29.59 in1002.0 mb 0.00 in0.0 mm 0.00 in0.0 mm 0.00 in0.0 mm
01:17 PM 66.4°F19.1°C -166.2°F-110.1°C - Calm Calm -- 29.37 in994.6 mb 0.00 in0.0 mm 0.00 in0.0 mm 0.00 in0.0 mm
01:32 PM 65.5°F18.6°C -166.3°F-110.2°C - Calm Calm -- 29.37 in994.6 mb 0.00 in0.0 mm 0.00 in0.0 mm 0.00 in0.0 mm
01:47 PM 64.9°F18.3°C -166.3°F-110.2°C - Calm Calm -- 29.37 in994.6 mb 0.00 in0.0 mm 0.00 in0.0 mm 0.00 in0.0 mm
02:02 PM 64.9°F18.3°C -166.3°F-110.2°C - Calm Calm -- 29.36 in994.2 mb 0.00 in0.0 mm 0.00 in0.0 mm 0.00 in0.0 mm
02:17 PM 63.7°F17.6°C -166.4°F-110.2°C - Calm Calm -- 29.36 in994.2 mb 0.02 in0.5 mm 0.10 in2.5 mm 0.02 in0.5 mm
02:32 PM 62.8°F17.1°C -166.5°F-110.3°C - Calm Calm -- 29.36 in994.2 mb 0.07 in1.8 mm 0.20 in5.1 mm 0.07 in1.8 mm
02:47 PM 62.1°F16.7°C -166.6°F-110.3°C - Calm Calm -- 29.35 in993.9 mb 0.10 in2.5 mm 0.10 in2.5 mm 0.10 in2.5 mm
03:02 PM 61.5°F16.4°C -166.6°F-110.3°C - Calm Calm -- 29.34 in993.6 mb 0.12 in3.0 mm 0.03 in0.8 mm 0.12 in3.0 mm
03:17 PM 61.3°F16.3°C -166.7°F-110.4°C - Calm Calm -- 29.33 in993.2 mb 0.05 in1.3 mm 0.00 in0.0 mm 0.12 in3.0 mm
03:32 PM 61.2°F16.2°C -166.7°F-110.4°C - Calm Calm -- 29.33 in993.2 mb 0.11 in2.8 mm 0.25 in6.4 mm 0.18 in4.6 mm
03:47 PM 60.8°F16.0°C -166.7°F-110.4°C - Calm Calm -- 29.33 in993.2 mb 0.14 in3.6 mm 0.10 in2.5 mm 0.21 in5.3 mm
04:02 PM 61.0°F16.1°C -166.7°F-110.4°C - Calm Calm -- 29.32 in992.9 mb 0.15 in3.8 mm 0.02 in0.5 mm 0.22 in5.6 mm
04:17 PM 61.0°F16.1°C -166.7°F-110.4°C - Calm Calm -- 29.31 in992.6 mb 0.05 in1.3 mm 0.00 in0.0 mm 0.22 in5.6 mm
04:32 PM 61.3°F16.3°C 6.4°F-14.2°C 11% Calm Calm -- 29.31 in992.6 mb 0.05 in1.3 mm 0.00 in0.0 mm 0.22 in5.6 mm
04:47 PM 61.3°F16.3°C 10.0°F-12.2°C 13% Calm Calm 0.6 mph1.0 kmh 29.31 in992.6 mb 0.06 in1.5 mm 0.05 in1.3 mm 0.23 in5.8 mm
05:02 PM 61.5°F16.4°C 13.3°F-10.4°C 15% Calm Calm -- 29.30 in992.2 mb 0.07 in1.8 mm 0.02 in0.5 mm 0.25 in6.4 mm
05:17 PM 61.3°F16.3°C 17.3°F-8.2°C 18% Calm Calm -- 29.29 in991.9 mb 0.01 in0.3 mm 0.00 in0.0 mm 0.25 in6.4 mm
05:32 PM 60.1°F15.6°C 18.7°F-7.4°C 20% Calm Calm -- 29.30 in992.2 mb 0.14 in3.6 mm 0.49 in12.4 mm 0.37 in9.4 mm
05:47 PM 59.4°F15.2°C 20.4°F-6.4°C 22% Calm Calm -- 29.31 in992.6 mb 0.15 in3.8 mm 0.05 in1.3 mm 0.38 in9.7 mm
06:02 PM 59.2°F15.1°C 24.1°F-4.4°C 26% Calm Calm -- 29.30 in992.2 mb 0.16 in4.1 mm 0.02 in0.5 mm 0.39 in9.9 mm
06:17 PM 59.2°F15.1°C 25.9°F-3.4°C 28% Calm Calm -- 29.30 in992.2 mb 0.00 in0.0 mm 0.00 in0.0 mm 0.39 in9.9 mm
06:32 PM 58.8°F14.9°C 27.3°F-2.6°C 30% Calm Calm 0.6 mph1.0 kmh 29.30 in992.2 mb 0.00 in0.0 mm 0.00 in0.0 mm 0.39 in9.9 mm
06:47 PM 59.2°F15.1°C 27.6°F-2.4°C 30% Calm Calm -- 29.30 in992.2 mb 0.00 in0.0 mm 0.00 in0.0 mm 0.39 in9.9 mm
07:02 PM 59.0°F15.0°C 28.2°F-2.1°C 31% Calm Calm -- 29.31 in992.6 mb 0.00 in0.0 mm 0.00 in0.0 mm 0.39 in9.9 mm
07:17 PM 58.8°F14.9°C 28.1°F-2.2°C 31% Calm Calm -- 29.30 in992.2 mb 0.00 in0.0 mm 0.00 in0.0 mm 0.39 in9.9 mm
07:32 PM 58.8°F14.9°C 28.1°F-2.2°C 31% Calm Calm -- 29.31 in992.6 mb 0.00 in0.0 mm 0.00 in0.0 mm 0.39 in9.9 mm
07:47 PM 59.0°F15.0°C 28.2°F-2.1°C 31% Calm Calm -- 29.31 in992.6 mb 0.00 in0.0 mm 0.00 in0.0 mm 0.39 in9.9 mm
08:02 PM 58.8°F14.9°C 28.9°F-1.7°C 32% Calm Calm -- 29.31 in992.6 mb 0.00 in0.0 mm 0.00 in0.0 mm 0.39 in9.9 mm
08:17 PM 58.8°F14.9°C 28.9°F-1.7°C 32% Calm Calm -- 29.31 in992.6 mb 0.00 in0.0 mm 0.00 in0.0 mm 0.39 in9.9 mm
08:32 PM 58.5°F14.7°C 28.5°F-1.9°C 32% Calm Calm -- 29.31 in992.6 mb 0.00 in0.0 mm 0.00 in0.0 mm 0.39 in9.9 mm
08:47 PM 58.3°F14.6°C 28.4°F-2.0°C 32% Calm Calm -- 29.31 in992.6 mb 0.00 in0.0 mm 0.00 in0.0 mm 0.39 in9.9 mm
09:02 PM 58.5°F14.7°C 28.5°F-1.9°C 32% Calm Calm -- 29.30 in992.2 mb 0.00 in0.0 mm 0.00 in0.0 mm 0.39 in9.9 mm
09:17 PM 58.1°F14.5°C 28.2°F-2.1°C 32% Calm Calm -- 29.30 in992.2 mb 0.00 in0.0 mm 0.00 in0.0 mm 0.39 in9.9 mm
09:32 PM 58.1°F14.5°C 28.2°F-2.1°C 32% Calm Calm -- 29.31 in992.6 mb 0.00 in0.0 mm 0.00 in0.0 mm 0.39 in9.9 mm
09:47 PM 57.9°F14.4°C 28.1°F-2.2°C 32% Calm Calm -- 29.30 in992.2 mb 0.00 in0.0 mm 0.00 in0.0 mm 0.39 in9.9 mm
10:02 PM 57.7°F14.3°C 27.9°F-2.3°C 32% Calm Calm -- 29.30 in992.2 mb 0.00 in0.0 mm 0.00 in0.0 mm 0.39 in9.9 mm
10:17 PM 58.1°F14.5°C 28.2°F-2.1°C 32% Calm Calm -- 29.30 in992.2 mb 0.00 in0.0 mm 0.00 in0.0 mm 0.39 in9.9 mm
10:32 PM 57.9°F14.4°C 28.1°F-2.2°C 32% Calm Calm -- 29.30 in992.2 mb 0.00 in0.0 mm 0.00 in0.0 mm 0.39 in9.9 mm
10:47 PM 57.7°F14.3°C 27.9°F-2.3°C 32% Calm Calm -- 29.30 in992.2 mb 0.00 in0.0 mm 0.00 in0.0 mm 0.39 in9.9 mm
11:02 PM 58.1°F14.5°C 28.2°F-2.1°C 32% Calm Calm -- 29.29 in991.9 mb 0.00 in0.0 mm 0.00 in0.0 mm 0.39 in9.9 mm
11:17 PM 57.9°F14.4°C 28.1°F-2.2°C 32% Calm Calm -- 29.29 in991.9 mb 0.00 in0.0 mm 0.00 in0.0 mm 0.39 in9.9 mm
11:32 PM 57.9°F14.4°C 28.1°F-2.2°C 32% Calm Calm -- 29.29 in991.9 mb 0.00 in0.0 mm 0.00 in0.0 mm 0.39 in9.9 mm
11:47 PM 57.7°F14.3°C 27.9°F-2.3°C 32% Calm Calm -- 29.29 in991.9 mb 0.00 in0.0 mm 0.00 in0.0 mm 0.39 in9.9 mm